Time;durP1;ratioP1;P1;durP2;ratioP2;P2;SDS_P1;SDS_P2;PMS_P1;PMS_P2;Temp;Humidity;BMP_temperature;BMP_pressure;BME280_temperature;BME280_humidity;BME280_pressure;Samples;Min_cycle;Max_cycle;Signal;HPM_P1;HPM_P2
2023/05/21 14:51:52;;;;;;;;;;;;;;;;;;;;;
2023/05/21 15:12:02;;;;;;;3.42;2.10;;;;;;;;;;6170061;23;20028;-83
2023/05/21 15:14:31;;;;;;;7.43;1.88;;;;;;;;;;6117418;23;20129;-83
2023/05/21 15:16:57;;;;;;;4.10;2.03;;;;;;;;;;6118553;23;20010;-83
2023/05/21 15:20:00;;;;;;;5.88;2.17;;;;;;;;;;6059338;23;20018;-83
2023/05/21 15:26:09;;;;;;;;;;;;;;;;;;;;;
2023/05/21 15:42:10;;;;;;;4.68;1.48;;;;;;;;;;6059690;23;20023;-83
2023/05/21 15:44:39;;;;;;;3.15;1.80;;;;;;;;;;6120598;23;20040;-83
2023/05/21 15:47:39;;;;;;;5.15;1.98;;;;;;;;;;6119490;23;20022;-83
2023/05/21 15:50:44;;;;;;;3.97;1.90;;;;;;;;;;6046717;23;20029;-83
2023/05/21 15:53:10;;;;;;;3.60;1.55;;;;;;;;;;6121655;23;20006;-84
2023/05/21 15:56:10;;;;;;;3.63;1.67;;;;;;;;;;6118389;23;20026;-84
2023/05/21 15:59:03;;;;;;;3.90;1.58;;;;;;;;;;6120050;23;20319;-85
2023/05/21 16:01:58;;;;;;;4.82;1.90;;;;;;;;;;6119012;23;20038;-85
2023/05/21 16:04:33;;;;;;;5.75;1.90;;;;;;;;;;6119683;23;20021;-85
2023/05/21 16:07:25;;;;;;;3.15;1.70;;;;;;;;;;6119348;23;20021;-84
2023/05/21 16:09:59;;;;;;;3.83;1.30;;;;;;;;;;6083910;23;20106;-84
2023/05/21 16:12:25;;;;;;;3.50;1.75;;;;;;;;;;6122148;23;20031;-85
2023/05/21 16:14:51;;;;;;;2.50;1.23;;;;;;;;;;6119710;23;20525;-84
2023/05/21 16:17:21;;;;;;;3.75;1.48;;;;;;;;;;6119486;23;20338;-84
2023/05/21 16:19:47;;;;;;;3.72;1.98;;;;;;;;;;6120119;23;20057;-85
2023/05/21 16:22:22;;;;;;;6.07;1.60;;;;;;;;;;6121543;23;20018;-84
2023/05/21 16:24:57;;;;;;;2.67;1.40;;;;;;;;;;6120613;23;20014;-83
2023/05/21 16:27:23;;;;;;;4.85;1.70;;;;;;;;;;6122576;23;20029;-83
2023/05/21 16:29:49;;;;;;;4.70;1.73;;;;;;;;;;6121323;23;20054;-83
2023/05/21 16:32:15;;;;;;;3.25;1.75;;;;;;;;;;6123451;23;20006;-83
2023/05/21 16:34:41;;;;;;;4.32;1.60;;;;;;;;;;6124059;23;20010;-81
2023/05/21 16:37:08;;;;;;;4.57;2.00;;;;;;;;;;6123449;23;20017;-82
2023/05/21 16:39:34;;;;;;;3.00;1.60;;;;;;;;;;6126421;23;20017;-83
2023/05/21 16:42:00;;;;;;;4.00;1.90;;;;;;;;;;6153303;23;20016;-82
2023/05/21 16:44:26;;;;;;;5.20;2.00;;;;;;;;;;6143292;23;20148;-82
2023/05/21 16:46:53;;;;;;;2.72;1.42;;;;;;;;;;6182567;23;20337;-82
2023/05/21 16:49:19;;;;;;;5.22;1.60;;;;;;;;;;6182130;23;20011;-83
2023/05/21 16:51:45;;;;;;;3.28;1.83;;;;;;;;;;6156258;23;20013;-82
2023/05/21 16:54:11;;;;;;;5.20;1.80;;;;;;;;;;6155932;23;20433;-83
2023/05/21 16:56:37;;;;;;;5.30;2.00;;;;;;;;;;6156367;23;20056;-83
2023/05/21 16:59:03;;;;;;;5.03;1.90;;;;;;;;;;6182969;23;20732;-83
2023/05/21 17:01:29;;;;;;;5.85;1.95;;;;;;;;;;6156540;23;20069;-84
2023/05/21 17:03:55;;;;;;;4.03;2.20;;;;;;;;;;6183175;23;20009;-84
2023/05/21 17:06:21;;;;;;;3.55;2.00;;;;;;;;;;6183285;23;20013;-84
2023/05/21 17:08:47;;;;;;;6.25;2.15;;;;;;;;;;6157186;23;20032;-83
2023/05/21 17:11:13;;;;;;;5.18;2.58;;;;;;;;;;6156996;23;20652;-85
2023/05/21 17:13:39;;;;;;;3.38;2.35;;;;;;;;;;6156497;23;20101;-82
2023/05/21 17:16:05;;;;;;;7.22;2.50;;;;;;;;;;6183794;23;20508;-84
2023/05/21 17:18:31;;;;;;;4.25;2.58;;;;;;;;;;6155899;23;20579;-82
2023/05/21 17:20:57;;;;;;;4.00;2.70;;;;;;;;;;6155558;23;20013;-82
2023/05/21 17:23:23;;;;;;;4.50;2.38;;;;;;;;;;6155566;23;20009;-83
2023/05/21 17:25:51;;;;;;;4.45;2.50;;;;;;;;;;6154829;23;20020;-84
2023/05/21 17:28:18;;;;;;;5.88;2.60;;;;;;;;;;6155774;23;20013;-83
2023/05/21 17:30:44;;;;;;;5.88;2.40;;;;;;;;;;6155267;23;20310;-84
2023/05/21 17:33:10;;;;;;;5.15;2.78;;;;;;;;;;6155386;23;20016;-85
2023/05/21 17:35:37;;;;;;;5.00;2.75;;;;;;;;;;6155635;23;20016;-85
